Mackenzie - Mackenzie River: Past 24 Hour Conditions

 

Stony Rapids Airport

07:00 AM CST 24 November 2014
This table is a summary of hourly weather conditions for the past 24 hours.
Date / Time
(CST)
Wind(knots) Conditions Visibility(km) Pressure(kPa) Air tempC) Relative humidity(%) Dew pointC) Wind Chill
24 November 2014
7:00 NNW 2 Clear 16 101.6 -22 77 -25 -26
6:00 NW 3 Mostly Cloudy 16 101.6 -20 75 -23 -24
5:00 NNW 6 Partly Cloudy 16 101.5 -18 76 -22 -26
4:00 NW 2 Cloudy 16 101.4 -17 84 -19 -20
3:00 calm Light Snow 16 101.3 -17 81 -20 *
2:00 WSW 2 Light Snow 16 101.3 -18 82 -20 -21
1:00 WNW 2 Light Snow 16 101.2 -18 84 -20 -21
0:00 calm Light Snow 5 101.2 -18 83 -20 *
23 November 2014
23:00 calm Light Snow 11 101.2 -18 84 -20 *
22:00 calm Light Snow 3 101.2 -18 84 -20 *
21:00 calm Light Snow 16 101.2 -19 83 -21 *
20:00 calm Light Snow 2 101.2 -19 83 -21 *
19:00 ESE 3 Light Snow 4 101.3 -19 82 -22 -24
18:00 E 5 Light Snow 4 101.3 -20 82 -22 -27
17:00 E 4 Light Snow 6 101.3 -20 81 -22 -26
16:00 E 5 Light Snow 11 101.4 -20 79 -23 -27
15:00 E 5 Cloudy 16 101.4 -20 78 -23 -27
14:00 E 5 Cloudy 16 101.5 -21 78 -24 -28
13:00 E 4 Cloudy 16 101.5 -23 80 -25 -29
12:00 ESE 6 Cloudy 16 101.6 -25 78 -28 -34
11:00 E 4 Mostly Cloudy 16 101.7 -27 77 -30 -34
10:00 E 3 Mostly Cloudy 16 101.7 -29 74 -32 -34
9:00 SE 2 Mostly Cloudy 16 101.7 -30 74 -33 -34
8:00 ESE 3 Mostly Cloudy 16 101.7 -31 73 -34 -37
7:00 ESE 4 Clear 16 101.8 -31 72 -35 -40
 
Map of Mackenzie - Mackenzie River marine weather areas Great Slave Lake - 45141 Great Slave Lake North Arm - 45150 Herschel Island Komakuk Beach Shingle Point Airport Aklavik Airport Cape Parry Airport Fort Good Hope Airport Tulita Airport Fort Providence Fort Reliance Fort Resolution Airport Fort Simpson Airport Hay River/Merlyn Carter Airport Inner Whaleback Rocks Inuvik Airport Keats Point Norman Wells Airport Paulatuk Airport Pelly Island Tuktoyaktuk Airport Wrigley Airport Yellowknife Airport Kugluktuk Airport Hat Island Cambridge Bay Airport Cape Peel West Stefansson Island Ulukhaktok Airport Sachs Harbour Airport Thomsen River Egg Island Fort Chipewyan Airport Stony Rapids Airport Liverpool Bay Little Chicago Lutselke Airport Storm Hills Croker River Prairie River Uranium City Bathurst Inlet Gateshead Island
Legend: buoyBuoy land stationLand Station